Time;durP1;ratioP1;P1;durP2;ratioP2;P2;SDS_P1;SDS_P2;PMS_P1;PMS_P2;Temp;Humidity;BMP_temperature;BMP_pressure;BME280_temperature;BME280_humidity;BME280_pressure;Samples;Min_cycle;Max_cycle;Signal;HPM_P1;HPM_P2
2021/01/04 00:00:09;;;;;;;7.43;4.47;;;;;;;4.50;75.63;99840.91;6131980;23;20092;-86
2021/01/04 00:02:57;;;;;;;8.10;4.78;;;;;;;4.53;75.30;99838.19;6131974;23;20024;-86
2021/01/04 00:05:35;;;;;;;6.93;4.47;;;;;;;4.53;75.19;99837.34;6157658;23;20026;-86
2021/01/04 00:08:44;;;;;;;7.22;4.22;;;;;;;4.51;75.12;99837.38;6158157;23;20076;-85
2021/01/04 00:11:25;;;;;;;5.80;4.40;;;;;;;4.52;75.17;99841.69;6157628;23;20069;-86
2021/01/04 00:14:23;;;;;;;6.60;3.90;;;;;;;4.52;75.11;99836.47;6131289;23;20028;-86
2021/01/04 00:17:07;;;;;;;5.60;3.95;;;;;;;4.53;75.18;99837.34;6130428;23;20041;-86
2021/01/04 00:19:47;;;;;;;5.57;4.00;;;;;;;4.55;75.50;99839.00;6157032;23;20456;-86
2021/01/04 00:22:31;;;;;;;6.45;4.50;;;;;;;4.52;75.14;99839.09;6131618;23;20025;-86
2021/01/04 00:24:59;;;;;;;;;;;;;;;4.56;75.15;99832.00;6157631;23;20018;-85
2021/01/04 00:27:51;;;;;;;6.45;3.75;;;;;;;4.54;75.05;99834.69;6130671;23;19916;-86
2021/01/04 00:30:24;;;;;;;;;;;;;;;4.58;75.27;99838.06;6132083;23;20025;-86
2021/01/04 00:33:24;;;;;;;7.95;4.57;;;;;;;4.59;75.17;99839.75;6156975;23;20236;-86
2021/01/04 00:36:31;;;;;;;6.13;4.40;;;;;;;4.57;75.31;99842.41;6134678;23;20032;-86
2021/01/04 00:39:09;;;;;;;6.63;3.90;;;;;;;4.59;75.45;99836.31;6131258;23;20037;-86
2021/01/04 00:41:47;;;;;;;5.05;4.30;;;;;;;4.57;75.23;99845.00;6130942;23;20022;-86
2021/01/04 00:44:24;;;;;;;5.13;3.65;;;;;;;4.60;75.49;99844.06;6156610;23;20033;-86
2021/01/04 00:47:01;;;;;;;6.03;3.95;;;;;;;4.61;75.13;99837.09;6130898;23;20025;-86
2021/01/04 00:49:33;;;;;;;5.68;3.78;;;;;;;4.60;75.25;99841.44;6156750;23;20378;-86
2021/01/04 00:52:05;;;;;;;5.20;3.92;;;;;;;4.58;75.21;99838.06;6131276;23;20028;-86
2021/01/04 00:55:04;;;;;;;5.40;3.83;;;;;;;4.56;75.14;99837.22;6131485;23;20329;-86
2021/01/04 00:58:20;;;;;;;5.53;3.95;;;;;;;4.56;75.06;99840.69;6127288;23;20357;-85
2021/01/04 01:01:03;;;;;;;5.45;3.90;;;;;;;4.57;75.28;99844.19;6066572;23;20027;-87
2021/01/04 01:04:15;;;;;;;6.32;4.47;;;;;;;4.55;75.03;99839.00;6130995;23;20021;-85
2021/01/04 01:07:02;;;;;;;5.43;3.80;;;;;;;4.58;75.23;99835.44;6130639;23;20033;-85
2021/01/04 01:09:36;;;;;;;4.03;3.45;;;;;;;4.57;75.31;99847.63;6130782;23;20029;-85
2021/01/04 01:12:21;;;;;;;4.70;3.40;;;;;;;4.59;75.75;99842.34;6155218;23;20368;-85
2021/01/04 01:15:18;;;;;;;5.43;3.67;;;;;;;4.55;75.29;99840.75;6157257;23;20024;-87
2021/01/04 01:18:03;;;;;;;4.47;3.42;;;;;;;4.55;75.33;99844.22;6130608;23;20033;-85
2021/01/04 01:20:35;;;;;;;5.10;4.00;;;;;;;4.56;75.74;99847.66;6130654;23;20387;-86
2021/01/04 01:23:01;;;;;;;5.65;3.63;;;;;;;4.56;75.95;99851.13;6156902;23;20130;-86
2021/01/04 01:25:40;;;;;;;4.60;3.85;;;;;;;4.56;75.74;99845.91;6157186;23;20035;-87
2021/01/04 01:28:55;;;;;;;8.18;3.85;;;;;;;4.56;75.38;99847.66;6156903;23;20100;-85
2021/01/04 01:31:56;;;;;;;5.18;4.28;;;;;;;4.57;75.36;99852.81;6156850;23;20025;-86
2021/01/04 01:35:19;;;;;;;5.55;4.40;;;;;;;4.57;75.23;99852.81;6135830;23;20016;-85
2021/01/04 01:37:58;;;;;;;4.43;3.90;;;;;;;4.61;75.60;99855.34;6130377;23;20021;-85
2021/01/04 01:41:01;;;;;;;5.30;3.60;;;;;;;4.57;75.14;99858.03;6155243;23;20026;-86
2021/01/04 01:43:46;;;;;;;;;;;;;;;4.62;75.20;99859.66;6129921;23;20018;-85
2021/01/04 01:46:26;;;;;;;5.47;3.83;;;;;;;4.60;74.91;99869.28;6128949;23;20267;-86
2021/01/04 01:48:58;;;;;;;4.82;3.83;;;;;;;4.61;75.65;99865.78;6129614;23;20052;-86
2021/01/04 01:51:48;;;;;;;4.30;3.77;;;;;;;4.56;75.12;99873.72;6129513;23;20025;-86
2021/01/04 01:54:51;;;;;;;4.97;3.58;;;;;;;4.56;75.33;99864.16;6155768;23;20257;-85
2021/01/04 01:57:34;;;;;;;4.90;3.55;;;;;;;4.62;75.83;99862.25;6116582;23;20477;-86
2021/01/04 02:00:09;;;;;;;6.35;4.00;;;;;;;4.60;75.42;99864.91;6155492;23;20025;-85
2021/01/04 02:03:05;;;;;;;5.00;3.75;;;;;;;4.60;75.43;99864.06;6130607;23;20021;-86
2021/01/04 02:05:58;;;;;;;4.50;3.70;;;;;;;4.60;75.44;99874.50;6107275;23;20028;-85
2021/01/04 02:08:28;;;;;;;4.63;3.53;;;;;;;4.60;75.46;99877.94;6128905;23;20025;-86
2021/01/04 02:11:05;;;;;;;4.82;3.63;;;;;;;4.61;75.41;99876.22;6129998;23;20400;-85
2021/01/04 02:13:43;;;;;;;4.70;3.35;;;;;;;4.59;75.16;99881.47;6106900;23;20452;-85
2021/01/04 02:16:17;;;;;;;4.25;3.47;;;;;;;4.61;75.64;99873.59;6129617;23;20041;-84
2021/01/04 02:19:24;;;;;;;4.43;3.15;;;;;;;4.58;74.92;99874.56;6154801;23;20472;-85
2021/01/04 02:22:24;;;;;;;3.72;3.00;;;;;;;4.56;74.96;99882.41;6129976;23;20026;-85
2021/01/04 02:25:09;;;;;;;3.83;2.80;;;;;;;4.55;74.94;99883.31;6129948;23;20028;-85
2021/01/04 02:27:39;;;;;;;3.72;2.63;;;;;;;4.59;75.42;99886.69;6128737;23;20109;-86
2021/01/04 02:30:06;;;;;;;4.97;2.83;;;;;;;4.57;75.27;99876.28;6155008;23;20029;-85
2021/01/04 02:32:42;;;;;;;3.85;2.72;;;;;;;4.55;75.19;99880.72;6128696;23;20029;-85
2021/01/04 02:35:09;;;;;;;3.50;2.65;;;;;;;4.57;75.66;99881.50;6129207;23;20013;-86
2021/01/04 02:37:37;;;;;;;3.63;2.55;;;;;;;4.56;75.34;99874.59;6101156;23;666915;-85
2021/01/04 02:40:14;;;;;;;3.78;2.50;;;;;;;4.53;75.01;99885.09;6131286;23;20072;-86
2021/01/04 02:42:47;;;;;;;3.58;2.55;;;;;;;4.51;74.98;99879.09;6156435;23;20017;-84
2021/01/04 02:45:30;;;;;;;5.07;2.83;;;;;;;4.48;74.72;99876.56;6156810;23;20089;-85
2021/01/04 02:48:23;;;;;;;3.25;2.58;;;;;;;4.48;74.69;99880.94;6157743;23;20049;-85
2021/01/04 02:51:15;;;;;;;4.18;3.00;;;;;;;4.46;74.64;99883.59;6133084;23;20097;-84
2021/01/04 02:54:29;;;;;;;4.35;2.70;;;;;;;4.42;74.54;99884.59;6157599;23;20064;-84
2021/01/04 02:57:23;;;;;;;4.10;3.00;;;;;;;4.41;74.86;99882.88;6157924;23;20048;-85
2021/01/04 03:00:01;;;;;;;6.13;3.65;;;;;;;4.44;75.19;99888.00;6158040;23;20017;-85
2021/01/04 03:02:37;;;;;;;7.03;3.63;;;;;;;4.42;75.38;99882.81;6132145;23;20072;-84
2021/01/04 03:05:09;;;;;;;5.65;3.28;;;;;;;4.43;75.44;99879.34;6131928;23;20017;-86
2021/01/04 03:07:36;;;;;;;5.95;3.65;;;;;;;4.46;75.62;99883.59;6157354;23;20021;-85
2021/01/04 03:10:18;;;;;;;5.85;3.25;;;;;;;4.45;75.26;99888.84;6130639;23;20021;-84
2021/01/04 03:13:03;;;;;;;4.60;3.28;;;;;;;4.47;75.28;99885.31;6156435;23;20040;-85
2021/01/04 03:15:52;;;;;;;4.53;3.30;;;;;;;4.47;75.19;99887.03;6132136;23;20021;-84
2021/01/04 03:18:39;;;;;;;5.22;3.45;;;;;;;4.50;75.49;99882.63;6104950;23;20032;-84
2021/01/04 03:21:06;;;;;;;4.38;3.35;;;;;;;4.54;75.94;99880.75;6132220;23;20072;-85
2021/01/04 03:23:34;;;;;;;4.35;3.20;;;;;;;4.54;75.94;99876.41;6157561;23;20028;-85
2021/01/04 03:26:15;;;;;;;3.97;3.20;;;;;;;4.53;75.44;99872.06;6157756;23;20028;-86
2021/01/04 03:28:41;;;;;;;4.47;3.33;;;;;;;4.58;76.03;99874.56;6131751;23;20460;-85
2021/01/04 03:31:08;;;;;;;4.38;3.38;;;;;;;4.60;75.93;99872.72;6157839;23;20022;-85
2021/01/04 03:33:35;;;;;;;4.72;3.28;;;;;;;4.61;75.95;99879.69;6131249;23;20022;-85
2021/01/04 03:36:01;;;;;;;4.28;3.08;;;;;;;4.64;75.73;99878.72;6131931;23;20026;-85
2021/01/04 03:38:27;;;;;;;4.35;3.00;;;;;;;4.65;75.83;99872.59;6152417;23;20120;-83
2021/01/04 03:40:53;;;;;;;5.13;3.03;;;;;;;4.66;75.67;99866.50;6186833;23;20021;-84
2021/01/04 03:43:19;;;;;;;3.80;2.72;;;;;;;4.65;75.86;99873.47;6186300;23;20467;-84
2021/01/04 03:45:46;;;;;;;3.85;2.80;;;;;;;4.67;75.63;99860.38;6186587;23;20029;-84
2021/01/04 03:48:12;;;;;;;3.42;2.70;;;;;;;4.65;75.61;99868.25;6186514;23;20025;-84
2021/01/04 03:50:38;;;;;;;3.15;2.63;;;;;;;4.67;75.51;99870.78;6186650;23;20482;-84
2021/01/04 03:53:04;;;;;;;4.47;3.00;;;;;;;4.67;75.74;99878.63;6186400;23;20388;-84
2021/01/04 03:55:31;;;;;;;3.47;2.67;;;;;;;4.66;75.55;99869.09;6160559;23;20025;-84
2021/01/04 03:57:57;;;;;;;5.28;2.85;;;;;;;4.65;75.49;99868.25;6186391;23;20032;-84
2021/01/04 04:00:23;;;;;;;4.05;2.88;;;;;;;4.66;75.50;99871.69;6186845;23;20055;-84
2021/01/04 04:02:49;;;;;;;4.43;3.05;;;;;;;4.65;75.52;99872.59;6160534;23;20021;-84
2021/01/04 04:05:17;;;;;;;3.85;2.70;;;;;;;4.64;75.72;99871.75;6186777;23;20339;-84
2021/01/04 04:07:44;;;;;;;3.90;2.70;;;;;;;4.64;75.65;99870.91;6186683;23;20044;-84
2021/01/04 04:10:12;;;;;;;4.88;3.22;;;;;;;4.64;75.67;99865.69;6186802;23;20031;-84
2021/01/04 04:12:38;;;;;;;4.25;2.88;;;;;;;4.64;75.76;99866.53;6186552;23;20025;-84
2021/01/04 04:15:08;;;;;;;3.92;2.78;;;;;;;4.65;75.62;99865.66;6186821;23;20024;-84
2021/01/04 04:17:34;;;;;;;3.78;2.67;;;;;;;4.67;75.88;99870.78;6186661;23;20021;-84
2021/01/04 04:20:01;;;;;;;4.60;3.13;;;;;;;4.67;75.81;99866.44;6186663;23;20025;-84
2021/01/04 04:22:27;;;;;;;7.22;4.05;;;;;;;4.69;75.79;99875.09;6160645;23;20021;-84
2021/01/04 04:24:53;;;;;;;5.40;3.70;;;;;;;4.69;75.72;99871.63;6186636;23;20025;-84
2021/01/04 04:27:19;;;;;;;5.15;3.33;;;;;;;4.68;75.51;99867.31;6186534;23;20025;-84
2021/01/04 04:29:45;;;;;;;4.57;3.25;;;;;;;4.67;75.58;99876.88;6186676;23;20032;-84
2021/01/04 04:32:12;;;;;;;4.60;3.17;;;;;;;4.67;75.43;99871.66;6160346;23;20079;-84
2021/01/04 04:34:39;;;;;;;5.85;3.38;;;;;;;4.65;75.38;99873.47;6186212;23;20021;-84
2021/01/04 04:37:06;;;;;;;7.32;3.58;;;;;;;4.64;75.28;99878.72;6186558;23;20407;-84
2021/01/04 04:39:32;;;;;;;6.60;3.83;;;;;;;4.63;75.54;99877.03;6186138;23;20455;-84
2021/01/04 04:42:03;;;;;;;3.95;2.90;;;;;;;4.62;75.51;99880.50;6160132;23;20028;-84
2021/01/04 04:44:31;;;;;;;4.40;3.00;;;;;;;4.62;75.61;99880.50;6186475;23;20028;-84
2021/01/04 04:47:41;;;;;;;5.07;3.20;;;;;;;4.60;75.33;99884.94;6185976;23;20025;-83
2021/01/04 04:50:51;;;;;;;4.82;2.95;;;;;;;4.62;75.33;99883.13;6157582;23;20032;-84
2021/01/04 04:53:40;;;;;;;7.38;3.95;;;;;;;4.63;75.31;99879.63;6186284;23;20021;-84
2021/01/04 04:56:28;;;;;;;4.93;3.20;;;;;;;4.64;75.13;99887.38;6186429;23;20044;-84
2021/01/04 04:58:58;;;;;;;4.75;2.75;;;;;;;4.67;75.44;99887.31;6186071;23;20087;-84
2021/01/04 05:01:43;;;;;;;4.75;2.65;;;;;;;4.63;74.86;99890.06;6160307;23;20021;-84
2021/01/04 05:04:28;;;;;;;5.18;2.95;;;;;;;4.63;74.85;99884.84;6186065;23;20068;-84
2021/01/04 05:07:08;;;;;;;7.70;3.80;;;;;;;4.62;74.89;99886.59;6185604;23;20029;-84
2021/01/04 05:09:40;;;;;;;5.38;3.45;;;;;;;4.63;74.92;99890.91;6186325;23;20021;-84
2021/01/04 05:12:24;;;;;;;4.53;2.83;;;;;;;4.60;74.68;99884.94;6185611;23;20475;-84
2021/01/04 05:15:05;;;;;;;4.32;3.28;;;;;;;4.61;75.15;99878.81;6186034;23;20052;-84
2021/01/04 05:18:00;;;;;;;5.90;3.58;;;;;;;4.57;74.79;99886.72;6185716;23;20364;-84
2021/01/04 05:21:01;;;;;;;8.02;4.43;;;;;;;4.58;75.01;99895.41;6186252;23;20021;-84
2021/01/04 05:23:46;;;;;;;7.13;3.80;;;;;;;4.63;75.36;99892.69;6185213;23;20077;-84
2021/01/04 05:26:36;;;;;;;7.32;4.30;;;;;;;4.57;74.96;99894.53;6185736;23;20452;-84
2021/01/04 05:29:50;;;;;;;7.22;4.07;;;;;;;4.57;75.05;99904.13;6185739;23;20390;-84
2021/01/04 05:32:19;;;;;;;6.32;3.97;;;;;;;4.59;75.42;99902.31;6145606;23;20037;-84
2021/01/04 05:34:58;;;;;;;8.20;4.43;;;;;;;4.60;75.50;99901.41;6186465;23;20021;-84
2021/01/04 05:37:46;;;;;;;7.07;4.13;;;;;;;4.57;75.36;99902.38;6185666;23;20031;-84
2021/01/04 05:40:31;;;;;;;5.97;3.78;;;;;;;4.59;75.76;99899.72;6186043;23;20032;-84
2021/01/04 05:43:22;;;;;;;8.05;5.07;;;;;;;4.57;75.40;99904.13;6185498;23;20020;-84
2021/01/04 05:46:16;;;;;;;8.13;3.75;;;;;;;4.58;75.43;99908.44;6159701;23;20028;-84
2021/01/04 05:49:00;;;;;;;6.57;3.78;;;;;;;4.59;75.66;99904.94;6185922;23;20359;-84
2021/01/04 05:51:31;;;;;;;7.97;4.30;;;;;;;4.62;75.79;99904.84;6186145;23;20021;-84
2021/01/04 05:53:57;;;;;;;6.05;3.83;;;;;;;4.64;76.02;99912.63;6159690;23;20023;-84
2021/01/04 05:56:27;;;;;;;8.38;4.20;;;;;;;4.63;76.04;99909.16;6159522;23;20101;-84
2021/01/04 05:59:06;;;;;;;5.70;3.63;;;;;;;4.65;75.71;99914.31;6186572;23;20032;-84
2021/01/04 06:01:32;;;;;;;6.00;3.83;;;;;;;4.69;75.91;99916.81;6185968;23;20032;-84
2021/01/04 06:04:00;;;;;;;5.40;3.45;;;;;;;4.70;76.02;99920.25;6185255;23;20480;-84
2021/01/04 06:06:34;;;;;;;7.50;3.75;;;;;;;4.70;75.89;99917.66;6185910;23;20021;-84
2021/01/04 06:09:07;;;;;;;5.90;3.83;;;;;;;4.71;75.83;99915.91;6186018;23;20020;-84
2021/01/04 06:11:33;;;;;;;7.15;4.22;;;;;;;4.72;75.91;99909.78;6185918;23;20021;-84
2021/01/04 06:14:06;;;;;;;4.90;3.42;;;;;;;4.71;75.46;99918.50;6185675;23;20021;-84
2021/01/04 06:16:32;;;;;;;7.75;3.70;;;;;;;4.72;75.68;99912.38;6159359;23;20460;-84
2021/01/04 06:19:08;;;;;;;5.22;3.15;;;;;;;4.71;75.21;99914.13;6186365;23;20460;-84
2021/01/04 06:21:49;;;;;;;7.75;3.75;;;;;;;4.71;75.51;99919.34;6188127;23;20028;-84
2021/01/04 06:24:34;;;;;;;6.65;3.67;;;;;;;4.72;75.21;99915.00;6187483;23;20024;-84
2021/01/04 06:27:14;;;;;;;11.02;4.68;;;;;;;4.73;75.47;99920.16;6187745;23;20032;-84
2021/01/04 06:29:46;;;;;;;7.35;4.32;;;;;;;4.74;75.62;99919.25;6187922;23;20021;-84
2021/01/04 06:32:31;;;;;;;6.93;4.00;;;;;;;4.73;75.33;99922.78;6187495;23;20025;-84
2021/01/04 06:35:27;;;;;;;5.35;3.72;;;;;;;4.74;75.22;99916.66;6187354;23;20021;-84
2021/01/04 06:38:13;;;;;;;8.63;3.50;;;;;;;4.75;75.44;99923.56;6185299;23;20032;-84
2021/01/04 06:40:43;;;;;;;6.75;3.75;;;;;;;4.78;75.61;99926.09;6187385;23;20452;-84
2021/01/04 06:43:19;;;;;;;7.72;4.85;;;;;;;4.76;75.45;99932.25;6187417;23;20375;-86
2021/01/04 06:46:10;;;;;;;7.72;4.32;;;;;;;4.74;75.43;99924.47;6161504;23;20029;-84
2021/01/04 06:48:59;;;;;;;8.50;4.15;;;;;;;4.78;75.87;99926.09;6187419;23;20025;-84
2021/01/04 06:51:48;;;;;;;9.27;4.95;;;;;;;4.79;75.51;99926.97;6176698;23;20025;-84
2021/01/04 06:54:42;;;;;;;10.55;4.93;;;;;;;4.79;75.62;99925.19;6187201;23;20028;-84
2021/01/04 06:57:29;;;;;;;8.05;4.53;;;;;;;4.83;75.89;99928.56;6187523;23;20021;-84
2021/01/04 07:00:03;;;;;;;9.25;5.00;;;;;;;4.81;75.64;99933.84;6187448;23;20028;-85
2021/01/04 07:02:44;;;;;;;9.63;5.72;;;;;;;4.81;75.57;99936.44;6187225;23;20025;-84
2021/01/04 07:05:28;;;;;;;10.65;5.50;;;;;;;4.85;75.92;99941.56;6187038;23;20024;-84
2021/01/04 07:08:03;;;;;;;11.68;5.68;;;;;;;4.86;76.09;99936.28;6186923;23;20455;-84
2021/01/04 07:10:40;;;;;;;11.43;5.13;;;;;;;4.87;75.82;99947.59;6187096;23;20370;-84
2021/01/04 07:13:34;;;;;;;10.50;5.07;;;;;;;4.88;75.65;99937.09;6187158;23;20395;-84
2021/01/04 07:16:15;;;;;;;10.75;4.90;;;;;;;4.92;76.03;99946.56;6187310;23;20017;-83
2021/01/04 07:18:56;;;;;;;8.52;4.68;;;;;;;4.95;75.88;99946.47;6187239;23;20021;-84
2021/01/04 07:21:40;;;;;;;13.00;5.35;;;;;;;4.94;75.62;99949.13;6187332;23;20025;-84
2021/01/04 07:24:24;;;;;;;;;;;;;;;5.00;75.56;99955.88;6187392;23;20017;-84
2021/01/04 07:27:02;;;;;;;8.30;4.03;;;;;;;5.02;75.45;99954.09;6186809;23;19916;-84
2021/01/04 07:29:52;;;;;;;8.98;4.63;;;;;;;5.02;75.51;99949.75;6187190;23;20324;-84
2021/01/04 07:32:37;;;;;;;9.20;4.72;;;;;;;5.01;75.48;99955.84;6187054;23;20024;-84
2021/01/04 07:35:12;;;;;;;9.60;4.15;;;;;;;5.04;75.66;99952.28;6187231;23;20056;-84
2021/01/04 07:38:26;;;;;;;11.93;4.75;;;;;;;5.02;75.31;99954.94;6186843;23;20020;-84
2021/01/04 07:41:30;;;;;;;8.38;4.32;;;;;;;5.03;75.28;99954.03;6155743;23;20021;-83
2021/01/04 07:44:15;;;;;;;9.23;4.60;;;;;;;5.05;75.47;99964.44;6112177;23;20448;-84
2021/01/04 07:46:59;;;;;;;12.95;4.20;;;;;;;5.05;75.58;99960.06;6186963;23;20032;-84
2021/01/04 07:49:48;;;;;;;7.00;3.88;;;;;;;5.07;75.77;99963.50;6187410;23;20359;-84
2021/01/04 07:52:47;;;;;;;10.48;3.75;;;;;;;5.06;75.09;99966.13;6187254;23;20327;-83
2021/01/04 07:55:42;;;;;;;6.75;4.25;;;;;;;5.06;74.94;99967.00;6186669;23;20036;-83
2021/01/04 07:58:11;;;;;;;7.28;3.97;;;;;;;5.08;75.39;99959.09;6186911;23;20028;-83
2021/01/04 08:01:14;;;;;;;8.25;3.85;;;;;;;5.04;75.32;99971.41;6187096;23;20021;-83
2021/01/04 08:04:05;;;;;;;7.50;3.88;;;;;;;5.06;75.31;99974.84;6186290;23;20033;-84
2021/01/04 08:06:59;;;;;;;6.70;3.65;;;;;;;5.07;75.03;99980.88;6187049;23;20024;-83
2021/01/04 08:09:31;;;;;;;6.72;3.80;;;;;;;5.11;75.66;99976.41;6186755;23;20096;-84
2021/01/04 08:12:34;;;;;;;8.87;3.33;;;;;;;5.06;75.23;99980.06;6160634;23;20025;-83
2021/01/04 08:15:39;;;;;;;6.70;3.30;;;;;;;5.07;74.86;99988.72;6186836;23;20021;-84
2021/01/04 08:18:09;;;;;;;6.85;3.75;;;;;;;5.10;75.61;99978.19;6183898;23;20464;-84
2021/01/04 08:20:41;;;;;;;12.05;4.47;;;;;;;5.12;75.92;99984.19;6160620;23;20025;-84
2021/01/04 08:23:24;;;;;;;10.27;4.70;;;;;;;5.09;75.29;99984.31;6160368;23;20352;-83
2021/01/04 08:25:56;;;;;;;;;;;;;;;5.14;75.13;99992.00;6187088;23;20021;-83
2021/01/04 08:28:37;;;;;;;6.07;3.00;;;;;;;5.14;74.94;99992.84;6186235;23;19971;-83
2021/01/04 08:31:20;;;;;;;7.35;4.13;;;;;;;5.15;75.00;99993.69;6186408;23;20514;-83
2021/01/04 08:34:01;;;;;;;7.10;3.75;;;;;;;5.15;75.07;99993.69;6160431;23;20020;-83
2021/01/04 08:36:45;;;;;;;10.63;4.07;;;;;;;5.16;75.25;99998.03;6186520;23;20021;-83
2021/01/04 08:39:35;;;;;;;7.30;3.97;;;;;;;5.15;75.07;99996.31;6186201;23;20464;-84
2021/01/04 08:42:04;;;;;;;7.03;3.70;;;;;;;5.18;75.53;100002.31;6186016;23;20036;-83
2021/01/04 08:44:33;;;;;;;7.03;3.42;;;;;;;5.20;75.75;99995.25;6186400;23;20029;-82
2021/01/04 08:47:25;;;;;;;7.85;3.65;;;;;;;5.20;75.24;99999.66;6185995;23;20025;-83
2021/01/04 08:50:03;;;;;;;6.68;3.40;;;;;;;5.21;75.18;100001.34;6186093;23;20363;-82
2021/01/04 08:52:41;;;;;;;7.60;4.03;;;;;;;5.22;75.11;99997.84;6186135;23;20043;-83
2021/01/04 08:55:07;;;;;;;7.38;3.08;;;;;;;5.26;75.47;99999.44;6186717;23;20017;-83
2021/01/04 08:57:42;;;;;;;8.10;3.72;;;;;;;5.24;74.97;99998.66;6186277;23;20028;-82
2021/01/04 09:00:15;;;;;;;6.57;3.13;;;;;;;5.25;75.09;100002.97;6185921;23;20460;-82
2021/01/04 09:02:42;;;;;;;6.75;4.22;;;;;;;5.29;75.71;100008.94;6186059;23;20091;-83
2021/01/04 09:05:12;;;;;;;7.50;3.50;;;;;;;5.29;75.52;100001.09;6185831;23;20023;-83
2021/01/04 09:07:53;;;;;;;5.60;3.05;;;;;;;5.29;75.17;100009.81;6185883;23;20025;-83
2021/01/04 09:10:22;;;;;;;5.78;3.20;;;;;;;5.33;75.61;100008.81;6186281;23;20021;-82
2021/01/04 09:13:08;;;;;;;5.38;2.80;;;;;;;5.33;74.85;100005.31;6185794;23;20032;-83
2021/01/04 09:15:36;;;;;;;5.95;3.22;;;;;;;5.38;75.52;100011.25;6159731;23;20451;-83
2021/01/04 09:18:02;;;;;;;6.97;2.85;;;;;;;5.39;75.45;100015.59;6185773;23;20024;-82
2021/01/04 09:20:56;;;;;;;6.22;3.50;;;;;;;5.35;74.72;100014.81;6186126;23;20028;-83
2021/01/04 09:23:28;;;;;;;8.07;3.22;;;;;;;5.40;75.49;100011.22;6186260;23;20028;-82
2021/01/04 09:26:03;;;;;;;5.63;2.45;;;;;;;5.40;75.22;100016.44;6186053;23;20021;-82
2021/01/04 09:28:51;;;;;;;5.57;2.67;;;;;;;5.39;75.24;100014.72;6185737;23;20040;-83
2021/01/04 09:31:18;;;;;;;3.85;2.70;;;;;;;5.40;75.44;100016.44;6185649;23;20032;-83
2021/01/04 09:33:48;;;;;;;5.25;2.85;;;;;;;5.40;74.96;100019.03;6159770;23;20025;-83
2021/01/04 09:36:17;;;;;;;4.88;2.88;;;;;;;5.40;75.43;100012.06;6185680;23;20460;-83
2021/01/04 09:39:37;;;;;;;7.63;2.90;;;;;;;5.39;74.55;100012.97;6178842;23;20028;-87
2021/01/04 09:42:37;;;;;;;5.68;3.10;;;;;;;5.42;74.62;100006.81;6139202;23;20025;-88
2021/01/04 09:46:19;;;;;;;8.68;3.58;;;;;;;5.41;74.48;100003.34;5965167;23;20022;-87
2021/01/04 09:49:10;;;;;;;;;;;;;;;5.47;74.76;100010.13;6017942;23;20070;-88
2021/01/04 09:56:40;;;;;;;;;;;;;;;;;;;;;
2021/01/04 10:03:48;;;;;;;5.43;3.30;;;;;;;5.41;74.80;100011.16;5947790;24;20089;-87
2021/01/04 10:07:07;;;;;;;;;;;;;;;;;;;;;
2021/01/04 10:10:49;;;;;;;9.80;3.78;;;;;;;5.41;74.76;100012.91;5957196;24;20060;-87
2021/01/04 10:13:30;;;;;;;6.80;3.75;;;;;;;5.45;75.10;100006.69;5953700;24;20025;-87
2021/01/04 10:16:51;;;;;;;5.45;4.00;;;;;;;5.45;74.86;100014.53;5956469;24;20083;-88
2021/01/04 10:19:51;;;;;;;6.85;4.50;;;;;;;5.47;74.79;100002.28;5908502;24;20345;-88
2021/01/04 10:22:49;;;;;;;5.45;4.13;;;;;;;5.47;74.93;100013.56;5998498;23;20073;-87
2021/01/04 10:25:59;;;;;;;6.32;4.18;;;;;;;5.51;75.34;100008.25;6114284;23;20378;-88
2021/01/04 10:28:51;;;;;;;6.57;4.15;;;;;;;5.55;75.76;100007.25;6164638;23;20021;-86
2021/01/04 10:31:48;;;;;;;6.43;4.28;;;;;;;5.55;75.00;100007.25;6166110;23;20100;-87
2021/01/04 10:34:56;;;;;;;8.20;4.65;;;;;;;5.55;74.77;99997.69;6157236;23;20017;-88
2021/01/04 10:37:53;;;;;;;6.78;4.28;;;;;;;5.58;74.99;99994.94;6188555;23;20017;-87
2021/01/04 10:41:05;;;;;;;7.55;4.75;;;;;;;5.58;74.52;99996.72;6188713;23;20071;-87
2021/01/04 10:47:54;;;;;;;3.70;2.83;;;;;;;5.64;74.66;99975.63;6124431;23;20083;-87
2021/01/04 10:51:04;;;;;;;5.35;4.28;;;;;;;5.63;74.81;99973.06;6189026;23;20456;-87
2021/01/04 11:05:06;;;;;;;7.80;4.82;;;;;;;5.70;75.25;99969.34;6155030;23;20100;-87
2021/01/04 11:07:45;;;;;;;8.40;5.40;;;;;;;5.64;74.50;99973.00;6131897;23;20021;-87
2021/01/04 11:17:50;;;;;;;5.15;4.30;;;;;;;5.61;74.75;99963.53;6187407;23;20041;-87
2021/01/04 11:21:01;;;;;;;5.55;4.93;;;;;;;5.61;74.26;99965.28;6162071;23;20017;-87
2021/01/04 11:23:27;;;;;;;;;;;;;;;5.65;74.35;99956.47;6162480;23;20040;-87
2021/01/04 11:26:46;;;;;;;7.28;4.28;;;;;;;5.63;74.18;99960.00;6163716;23;20251;-87
2021/01/04 11:29:37;;;;;;;8.20;4.38;;;;;;;5.62;74.75;99948.72;6039135;23;20083;-87
2021/01/04 11:32:11;;;;;;;6.88;4.80;;;;;;;5.65;75.19;99952.97;6016341;23;20094;-87
2021/01/04 11:35:37;;;;;;;;;;;;;;;;;;;;;
2021/01/04 11:38:07;;;;;;;6.07;4.68;;;;;;;5.65;75.50;99950.38;5982706;24;20099;-87
2021/01/04 11:40:52;;;;;;;5.82;4.30;;;;;;;5.63;75.28;99944.31;5959445;24;20024;-88
2021/01/04 11:44:13;;;;;;;9.27;4.53;;;;;;;5.61;74.78;99947.84;5961058;24;20038;-87
2021/01/04 11:47:36;;;;;;;6.65;4.32;;;;;;;5.64;75.33;99954.72;5958977;24;20043;-87
2021/01/04 11:49:50;;;;;;;6.10;4.25;;;;;;;5.64;74.83;99948.66;6007368;23;20090;-87
2021/01/04 11:52:20;;;;;;;4.95;4.03;;;;;;;5.64;74.92;99946.06;5988959;23;20034;-87
2021/01/04 11:55:32;;;;;;;5.30;4.18;;;;;;;5.61;74.53;99931.34;6149978;23;20041;-87
2021/01/04 11:58:13;;;;;;;5.32;3.72;;;;;;;5.64;75.08;99931.22;6132903;23;20025;-87
2021/01/04 12:50:14;;;;;;;8.73;4.18;;;;;;;5.35;75.27;99906.97;6158162;23;20479;-87
2021/01/04 12:53:09;;;;;;;5.18;3.83;;;;;;;5.32;74.80;99902.69;6110087;23;20031;-88
2021/01/04 12:55:57;;;;;;;5.05;4.38;;;;;;;5.34;75.33;99898.25;6156774;23;20456;-87
2021/01/04 12:58:30;;;;;;;4.70;3.63;;;;;;;5.33;74.93;99904.38;6156786;23;20021;-88
2021/01/04 13:04:52;;;;;;;5.75;3.70;;;;;;;5.37;75.18;99891.22;6157307;23;19915;-87
2021/01/04 13:07:22;;;;;;;4.65;4.13;;;;;;;5.32;74.56;99891.38;6131146;23;20021;-87
2021/01/04 13:11:04;;;;;;;5.82;4.40;;;;;;;5.26;74.44;99897.66;6156498;23;20017;-87
2021/01/04 13:14:02;;;;;;;5.45;4.20;;;;;;;5.28;74.81;99888.03;5925454;24;20346;-88
2021/01/04 13:16:42;;;;;;;5.05;4.10;;;;;;;5.28;75.16;99890.66;5983840;23;20072;-87
2021/01/04 13:19:36;;;;;;;6.18;3.55;;;;;;;5.24;74.56;99890.78;6009525;23;20459;-88
2021/01/04 13:22:29;;;;;;;6.72;4.10;;;;;;;5.25;74.76;99887.25;5926091;24;20448;-88
2021/01/04 13:25:14;;;;;;;5.22;4.03;;;;;;;5.23;74.66;99892.53;6010948;23;20029;-87
2021/01/04 13:27:41;;;;;;;4.78;3.72;;;;;;;5.26;75.26;99888.97;6045772;23;20019;-87
2021/01/04 13:30:08;;;;;;;5.05;3.75;;;;;;;5.25;75.15;99882.91;6067414;23;20458;-87
2021/01/04 13:32:35;;;;;;;6.15;4.15;;;;;;;5.25;75.21;99890.72;6066456;23;20023;-86
2021/01/04 13:35:01;;;;;;;6.13;4.43;;;;;;;5.26;75.33;99888.97;6042631;23;20019;-88
2021/01/04 13:37:28;;;;;;;5.60;4.28;;;;;;;5.26;75.24;99881.13;6042994;23;20071;-86
2021/01/04 13:39:54;;;;;;;4.88;4.28;;;;;;;5.24;75.14;99881.22;6081675;23;20025;-87
2021/01/04 13:42:21;;;;;;;4.60;4.00;;;;;;;5.25;75.21;99882.91;6156952;23;20405;-86
2021/01/04 13:44:47;;;;;;;4.40;3.90;;;;;;;5.26;75.46;99878.53;6154672;23;20017;-88
2021/01/04 13:47:15;;;;;;;4.60;4.05;;;;;;;5.26;75.25;99881.13;6156521;23;20476;-87
2021/01/04 13:49:47;;;;;;;6.28;3.70;;;;;;;5.25;74.96;99875.06;6155204;23;20356;-89
2021/01/04 13:52:19;;;;;;;3.10;2.60;;;;;;;5.27;74.82;99875.88;6155080;23;20025;-86
2021/01/04 13:55:29;;;;;;;4.43;3.92;;;;;;;5.26;74.45;99860.25;6155407;23;20119;-87
2021/01/04 13:57:58;;;;;;;4.30;3.47;;;;;;;5.32;75.35;99881.81;6097179;23;20026;-87
2021/01/04 14:00:24;;;;;;;3.92;3.33;;;;;;;5.30;75.05;99873.16;6157130;23;20021;-87
2021/01/04 14:02:51;;;;;;;3.40;3.10;;;;;;;5.31;75.05;99867.03;6157873;23;20021;-88
2021/01/04 14:05:17;;;;;;;4.10;3.33;;;;;;;5.29;75.05;99863.63;6155492;23;20448;-87
2021/01/04 14:07:47;;;;;;;4.35;3.35;;;;;;;5.28;74.73;99871.50;6156610;23;20036;-88
2021/01/04 14:10:22;;;;;;;4.00;3.60;;;;;;;5.26;74.27;99868.09;6156771;23;20033;-87
2021/01/04 14:12:49;;;;;;;5.32;2.92;;;;;;;5.28;75.08;99866.28;6158244;23;20096;-86
2021/01/04 14:15:16;;;;;;;4.15;3.30;;;;;;;5.27;75.04;99867.19;6155648;23;20013;-86
2021/01/04 14:17:43;;;;;;;4.00;3.28;;;;;;;5.28;74.88;99863.69;6157665;23;20453;-86
2021/01/04 14:20:11;;;;;;;4.13;3.45;;;;;;;5.26;75.19;99866.34;6155082;23;20021;-86
2021/01/04 14:22:38;;;;;;;4.15;3.53;;;;;;;5.27;75.09;99868.03;6156128;23;20025;-86